VLG43DM LEBL-EDDM
Flight info
| Callsign | VLG43DM |
|---|---|
| Flight time | 1h 32m |
| Altitude | 30000 |
| Route | DALIN DCT PIVUS DCT DIBER/N0459F360 DCT ADITA DCT MAXIR DCT LUSOL DCT BODRU DCT OKTET DCT IRMAR DCT KINES DCT VANAS DCT MOBLO DCT LAMUR DCT KORED/N0458F350 DCT NUNRI/N0454F370 T103 BETOS BETOS1B |
| Aircraft | A320/M-SDE3FGHIRWY/LB1 |
Departure
| Time | 2026-05-05 07:59 |
|---|---|
| Airport | Josep Tarradellas Barcelona-El Prat Airport (LEBL) |
Arrival
| Time | 2026-05-05 09:31 |
|---|---|
| Airport | Munich Airport (EDDM) |
| Time | Latitude | Longitude | Altitude | Speed | Heading |
|---|---|---|---|---|---|
| 2026-05-05 07:34 | 41.29577 | 2.06108 | 19 ft | 0 kts | 65° |
| 2026-05-05 07:48 | 41.29579 | 2.06114 | -7 ft | 4 kts | 65° |
| 2026-05-05 07:48 | 41.29590 | 2.06166 | 19 ft | 6 kts | 103° |
| 2026-05-05 07:48 | 41.29540 | 2.06212 | 19 ft | 13 kts | 155° |
| 2026-05-05 07:49 | 41.29460 | 2.06177 | 17 ft | 15 kts | 245° |
| 2026-05-05 07:49 | 41.29369 | 2.06126 | 15 ft | 17 kts | 176° |
| 2026-05-05 07:49 | 41.29255 | 2.06175 | 17 ft | 19 kts | 155° |
| 2026-05-05 07:49 | 41.29123 | 2.06253 | 15 ft | 22 kts | 162° |
| 2026-05-05 07:50 | 41.29028 | 2.06407 | 17 ft | 23 kts | 109° |
| 2026-05-05 07:50 | 41.29023 | 2.06616 | 18 ft | 24 kts | 65° |
| 2026-05-05 07:50 | 41.29098 | 2.06828 | 18 ft | 27 kts | 66° |
| 2026-05-05 07:50 | 41.29167 | 2.07023 | 17 ft | 23 kts | 66° |
| 2026-05-05 07:51 | 41.29235 | 2.07232 | 17 ft | 26 kts | 64° |
| 2026-05-05 07:51 | 41.29315 | 2.07456 | 16 ft | 28 kts | 65° |
| 2026-05-05 07:51 | 41.29391 | 2.07702 | 15 ft | 24 kts | 66° |
| 2026-05-05 07:51 | 41.29451 | 2.07880 | 15 ft | 22 kts | 66° |
| 2026-05-05 07:52 | 41.29519 | 2.08078 | 15 ft | 25 kts | 65° |
| 2026-05-05 07:52 | 41.29569 | 2.08276 | 16 ft | 21 kts | 85° |
| 2026-05-05 07:52 | 41.29617 | 2.08439 | 17 ft | 15 kts | 64° |
| 2026-05-05 07:52 | 41.29602 | 2.08530 | 17 ft | 11 kts | 155° |
| 2026-05-05 07:53 | 41.29535 | 2.08569 | 16 ft | 11 kts | 156° |
| 2026-05-05 07:53 | 41.29467 | 2.08611 | 14 ft | 11 kts | 155° |
| 2026-05-05 07:53 | 41.29404 | 2.08647 | 17 ft | 8 kts | 156° |
| 2026-05-05 07:53 | 41.29354 | 2.08677 | 17 ft | 9 kts | 155° |
| 2026-05-05 07:54 | 41.29283 | 2.08720 | 18 ft | 12 kts | 155° |
| 2026-05-05 07:54 | 41.29182 | 2.08781 | 16 ft | 21 kts | 157° |
| 2026-05-05 07:54 | 41.29042 | 2.08864 | 17 ft | 22 kts | 155° |
| 2026-05-05 07:54 | 41.28950 | 2.08941 | 16 ft | 14 kts | 111° |
| 2026-05-05 07:55 | 41.28979 | 2.09067 | 16 ft | 16 kts | 65° |
| 2026-05-05 07:55 | 41.29027 | 2.09212 | 17 ft | 18 kts | 66° |
| 2026-05-05 07:55 | 41.29083 | 2.09379 | 17 ft | 21 kts | 66° |
| 2026-05-05 07:55 | 41.29150 | 2.09569 | 17 ft | 24 kts | 66° |
| 2026-05-05 07:56 | 41.29223 | 2.09780 | 17 ft | 24 kts | 66° |
| 2026-05-05 07:56 | 41.29294 | 2.09963 | 17 ft | 21 kts | 60° |
| 2026-05-05 07:56 | 41.29338 | 2.10083 | 16 ft | 11 kts | 65° |
| 2026-05-05 07:56 | 41.29368 | 2.10170 | 16 ft | 10 kts | 68° |
| 2026-05-05 07:57 | 41.29354 | 2.10249 | 16 ft | 10 kts | 134° |
| 2026-05-05 07:57 | 41.29293 | 2.10292 | 13 ft | 10 kts | 157° |
| 2026-05-05 07:57 | 41.29237 | 2.10321 | 14 ft | 7 kts | 168° |
| 2026-05-05 07:57 | 41.29213 | 2.10302 | 15 ft | 3 kts | 237° |
| 2026-05-05 07:58 | 41.29209 | 2.10293 | 15 ft | 1 kts | 242° |
| 2026-05-05 07:58 | 41.29199 | 2.10264 | 16 ft | 11 kts | 245° |
| 2026-05-05 07:58 | 41.29068 | 2.09878 | 20 ft | 82 kts | 245° |
| 2026-05-05 07:59 | 41.28743 | 2.08928 | 20 ft | 141 kts | 245° |
| 2026-05-05 07:59 | 41.28278 | 2.07595 | 286 ft | 162 kts | 245° |
| 2026-05-05 07:59 | 41.27546 | 2.06548 | 999 ft | 164 kts | 203° |
| 2026-05-05 07:59 | 41.26340 | 2.06337 | 1399 ft | 185 kts | 183° |
| 2026-05-05 08:00 | 41.25006 | 2.06326 | 1937 ft | 195 kts | 182° |
| 2026-05-05 08:00 | 41.23567 | 2.06246 | 2278 ft | 218 kts | 184° |
| 2026-05-05 08:00 | 41.21984 | 2.06143 | 2795 ft | 234 kts | 184° |
| 2026-05-05 08:00 | 41.20337 | 2.06047 | 3500 ft | 244 kts | 185° |
| 2026-05-05 08:01 | 41.18564 | 2.05943 | 3940 ft | 266 kts | 184° |
| 2026-05-05 08:01 | 41.16643 | 2.05862 | 4382 ft | 288 kts | 179° |
| 2026-05-05 08:01 | 41.14636 | 2.06560 | 4755 ft | 314 kts | 153° |
| 2026-05-05 08:01 | 41.12960 | 2.08559 | 5065 ft | 340 kts | 124° |
| 2026-05-05 08:02 | 41.12100 | 2.11565 | 5293 ft | 364 kts | 98° |
| 2026-05-05 08:02 | 41.12322 | 2.14991 | 5534 ft | 385 kts | 73° |
| 2026-05-05 08:02 | 41.13457 | 2.18227 | 6108 ft | 391 kts | 58° |
| 2026-05-05 08:02 | 41.15048 | 2.21181 | 6730 ft | 396 kts | 51° |
| 2026-05-05 08:03 | 41.16826 | 2.23998 | 7340 ft | 400 kts | 49° |
| 2026-05-05 08:03 | 41.18636 | 2.26832 | 7948 ft | 405 kts | 50° |
| 2026-05-05 08:03 | 41.20402 | 2.29771 | 8555 ft | 410 kts | 52° |
| 2026-05-05 08:03 | 41.22102 | 2.32838 | 9171 ft | 414 kts | 54° |
| 2026-05-05 08:04 | 41.23746 | 2.36012 | 9782 ft | 419 kts | 56° |
| 2026-05-05 08:04 | 41.25357 | 2.39258 | 10345 ft | 423 kts | 57° |
| 2026-05-05 08:04 | 41.26969 | 2.42554 | 10922 ft | 427 kts | 57° |
| 2026-05-05 08:04 | 41.28597 | 2.45871 | 11471 ft | 431 kts | 57° |
| 2026-05-05 08:05 | 41.30255 | 2.49218 | 12030 ft | 435 kts | 57° |
| 2026-05-05 08:05 | 41.31937 | 2.52578 | 12589 ft | 439 kts | 57° |
| 2026-05-05 08:05 | 41.33647 | 2.55966 | 13118 ft | 443 kts | 56° |
| 2026-05-05 08:05 | 41.35376 | 2.59383 | 13665 ft | 446 kts | 57° |
| 2026-05-05 08:06 | 41.37115 | 2.62821 | 14110 ft | 450 kts | 57° |
| 2026-05-05 08:06 | 41.38870 | 2.66294 | 14527 ft | 454 kts | 56° |
| 2026-05-05 08:06 | 41.40638 | 2.69803 | 14931 ft | 458 kts | 56° |
| 2026-05-05 08:06 | 41.42417 | 2.73348 | 15332 ft | 462 kts | 56° |
| 2026-05-05 08:07 | 41.44209 | 2.76933 | 15723 ft | 466 kts | 56° |
| 2026-05-05 08:07 | 41.46009 | 2.80539 | 16087 ft | 470 kts | 56° |
| 2026-05-05 08:07 | 41.47829 | 2.84193 | 16463 ft | 474 kts | 56° |
| 2026-05-05 08:07 | 41.49656 | 2.87861 | 16808 ft | 477 kts | 56° |
| 2026-05-05 08:08 | 41.51503 | 2.91563 | 17160 ft | 481 kts | 56° |
| 2026-05-05 08:08 | 41.53386 | 2.95346 | 17512 ft | 484 kts | 56° |
| 2026-05-05 08:08 | 41.55252 | 2.99105 | 17842 ft | 487 kts | 56° |
| 2026-05-05 08:08 | 41.57133 | 3.02890 | 18168 ft | 490 kts | 56° |
| 2026-05-05 08:09 | 41.59022 | 3.06689 | 18447 ft | 493 kts | 56° |
| 2026-05-05 08:09 | 41.60926 | 3.10521 | 18720 ft | 496 kts | 56° |
| 2026-05-05 08:09 | 41.62840 | 3.14384 | 18977 ft | 499 kts | 56° |
| 2026-05-05 08:09 | 41.64753 | 3.18256 | 19216 ft | 502 kts | 56° |
| 2026-05-05 08:10 | 41.66680 | 3.22165 | 19458 ft | 504 kts | 56° |
| 2026-05-05 08:10 | 41.68611 | 3.26089 | 19689 ft | 507 kts | 56° |
| 2026-05-05 08:10 | 41.70553 | 3.30039 | 19917 ft | 509 kts | 56° |
| 2026-05-05 08:10 | 41.72499 | 3.34011 | 20143 ft | 512 kts | 57° |
| 2026-05-05 08:11 | 41.74193 | 3.38208 | 20357 ft | 514 kts | 66° |
| 2026-05-05 08:11 | 41.75651 | 3.42596 | 20560 ft | 516 kts | 66° |
| 2026-05-05 08:11 | 41.77110 | 3.46995 | 20773 ft | 518 kts | 66° |
| 2026-05-05 08:11 | 41.78579 | 3.51415 | 20977 ft | 520 kts | 66° |
| 2026-05-05 08:12 | 41.80052 | 3.55853 | 21181 ft | 522 kts | 66° |
| 2026-05-05 08:12 | 41.81528 | 3.60305 | 21364 ft | 524 kts | 66° |
| 2026-05-05 08:12 | 41.83008 | 3.64777 | 21556 ft | 526 kts | 66° |
| 2026-05-05 08:12 | 41.84493 | 3.69273 | 21753 ft | 527 kts | 66° |
| 2026-05-05 08:13 | 41.85978 | 3.73780 | 21914 ft | 529 kts | 67° |
| 2026-05-05 08:13 | 41.87463 | 3.78302 | 22083 ft | 531 kts | 67° |
| 2026-05-05 08:13 | 41.88952 | 3.82849 | 22236 ft | 533 kts | 67° |
| 2026-05-05 08:13 | 41.90439 | 3.87402 | 22381 ft | 534 kts | 67° |
| 2026-05-05 08:14 | 41.91934 | 3.91976 | 22520 ft | 535 kts | 67° |
| 2026-05-05 08:14 | 41.93432 | 3.96560 | 22642 ft | 536 kts | 67° |
| 2026-05-05 08:14 | 41.94930 | 4.01149 | 22787 ft | 537 kts | 67° |
| 2026-05-05 08:14 | 41.96428 | 4.05744 | 22922 ft | 538 kts | 67° |
| 2026-05-05 08:15 | 41.97931 | 4.10351 | 23061 ft | 538 kts | 67° |
| 2026-05-05 08:15 | 41.99430 | 4.14967 | 23198 ft | 539 kts | 67° |
| 2026-05-05 08:15 | 42.00922 | 4.19581 | 23338 ft | 539 kts | 67° |
| 2026-05-05 08:15 | 42.02419 | 4.24219 | 23471 ft | 540 kts | 67° |
| 2026-05-05 08:16 | 42.03910 | 4.28853 | 23594 ft | 540 kts | 67° |
| 2026-05-05 08:16 | 42.05422 | 4.33559 | 23710 ft | 541 kts | 67° |
| 2026-05-05 08:16 | 42.07083 | 4.38025 | 23824 ft | 541 kts | 59° |
| 2026-05-05 08:16 | 42.09224 | 4.42262 | 23939 ft | 541 kts | 50° |
| 2026-05-05 08:17 | 42.11740 | 4.46012 | 24057 ft | 539 kts | 41° |
| 2026-05-05 08:17 | 42.14521 | 4.49376 | 24175 ft | 538 kts | 39° |
| 2026-05-05 08:17 | 42.17320 | 4.52719 | 24291 ft | 538 kts | 39° |
| 2026-05-05 08:17 | 42.20113 | 4.56074 | 24411 ft | 538 kts | 39° |
| 2026-05-05 08:18 | 42.22904 | 4.59440 | 24531 ft | 538 kts | 39° |
| 2026-05-05 08:18 | 42.25685 | 4.62804 | 24643 ft | 538 kts | 40° |
| 2026-05-05 08:18 | 42.28473 | 4.66186 | 24763 ft | 538 kts | 40° |
| 2026-05-05 08:18 | 42.31254 | 4.69561 | 24881 ft | 538 kts | 40° |
| 2026-05-05 08:19 | 42.34034 | 4.72937 | 25001 ft | 538 kts | 40° |
| 2026-05-05 08:19 | 42.36815 | 4.76313 | 25112 ft | 538 kts | 39° |
| 2026-05-05 08:19 | 42.39595 | 4.79689 | 25239 ft | 538 kts | 40° |
| 2026-05-05 08:19 | 42.42380 | 4.83075 | 25359 ft | 537 kts | 40° |
| 2026-05-05 08:20 | 42.45160 | 4.86459 | 25468 ft | 537 kts | 40° |
| 2026-05-05 08:20 | 42.47942 | 4.89847 | 25610 ft | 537 kts | 39° |
| 2026-05-05 08:20 | 42.50717 | 4.93229 | 25726 ft | 537 kts | 40° |
| 2026-05-05 08:20 | 42.53497 | 4.96625 | 25849 ft | 537 kts | 40° |
| 2026-05-05 08:21 | 42.56271 | 5.00024 | 25974 ft | 537 kts | 40° |
| 2026-05-05 08:21 | 42.59040 | 5.03422 | 26098 ft | 537 kts | 40° |
| 2026-05-05 08:21 | 42.61816 | 5.06830 | 26223 ft | 537 kts | 40° |
| 2026-05-05 08:21 | 42.64586 | 5.10233 | 26348 ft | 537 kts | 40° |
| 2026-05-05 08:22 | 42.67358 | 5.13644 | 26474 ft | 537 kts | 40° |
| 2026-05-05 08:22 | 42.70126 | 5.17054 | 26598 ft | 537 kts | 40° |
| 2026-05-05 08:22 | 42.72892 | 5.20471 | 26726 ft | 537 kts | 40° |
| 2026-05-05 08:22 | 42.75695 | 5.23942 | 26853 ft | 537 kts | 40° |
| 2026-05-05 08:23 | 42.78458 | 5.27366 | 26987 ft | 537 kts | 40° |
| 2026-05-05 08:23 | 42.81224 | 5.30792 | 27112 ft | 537 kts | 40° |
| 2026-05-05 08:23 | 42.83985 | 5.34217 | 27244 ft | 537 kts | 40° |
| 2026-05-05 08:23 | 42.86751 | 5.37645 | 27369 ft | 537 kts | 40° |
| 2026-05-05 08:24 | 42.89512 | 5.41069 | 27498 ft | 537 kts | 40° |
| 2026-05-05 08:24 | 42.92273 | 5.44496 | 27628 ft | 537 kts | 40° |
| 2026-05-05 08:24 | 42.95030 | 5.47929 | 27762 ft | 537 kts | 40° |
| 2026-05-05 08:24 | 42.97783 | 5.51366 | 27882 ft | 537 kts | 40° |
| 2026-05-05 08:25 | 43.00536 | 5.54812 | 28027 ft | 537 kts | 40° |
| 2026-05-05 08:25 | 43.03281 | 5.58254 | 28159 ft | 537 kts | 40° |
| 2026-05-05 08:25 | 43.06035 | 5.61712 | 28298 ft | 536 kts | 40° |
| 2026-05-05 08:25 | 43.08782 | 5.65158 | 28431 ft | 536 kts | 40° |
| 2026-05-05 08:26 | 43.11533 | 5.68609 | 28570 ft | 536 kts | 40° |
| 2026-05-05 08:26 | 43.14284 | 5.72067 | 28705 ft | 536 kts | 40° |
| 2026-05-05 08:26 | 43.17028 | 5.75520 | 28841 ft | 537 kts | 40° |
| 2026-05-05 08:26 | 43.19775 | 5.78984 | 28982 ft | 537 kts | 40° |
| 2026-05-05 08:27 | 43.22522 | 5.82454 | 29120 ft | 537 kts | 40° |
| 2026-05-05 08:27 | 43.25265 | 5.85923 | 29257 ft | 537 kts | 40° |
| 2026-05-05 08:27 | 43.28010 | 5.89399 | 29399 ft | 536 kts | 40° |
| 2026-05-05 08:27 | 43.30754 | 5.92876 | 29540 ft | 537 kts | 40° |
| 2026-05-05 08:28 | 43.33503 | 5.96343 | 29684 ft | 536 kts | 38° |
| 2026-05-05 08:28 | 43.36462 | 5.99415 | 29853 ft | 531 kts | 28° |
| 2026-05-05 08:28 | 43.39694 | 6.01850 | 29962 ft | 527 kts | 19° |
| 2026-05-05 08:28 | 43.43114 | 6.03574 | 29959 ft | 521 kts | 10° |
| 2026-05-05 08:29 | 43.50173 | 6.05102 | 29962 ft | 510 kts | 357° |
| 2026-05-05 08:30 | 43.60856 | 6.06184 | 29958 ft | 511 kts | 358° |
| 2026-05-05 08:30 | 43.66747 | 6.06797 | 29956 ft | 511 kts | 358° |
| 2026-05-05 08:31 | 43.73895 | 6.07612 | 29956 ft | 515 kts | 2° |
| 2026-05-05 08:31 | 43.80865 | 6.10387 | 29959 ft | 529 kts | 20° |
| 2026-05-05 08:32 | 43.87491 | 6.14883 | 29961 ft | 530 kts | 22° |
| 2026-05-05 08:32 | 43.94111 | 6.19401 | 29980 ft | 530 kts | 22° |
| 2026-05-05 08:33 | 44.00727 | 6.23928 | 29987 ft | 530 kts | 22° |
| 2026-05-05 08:33 | 44.07350 | 6.28469 | 29970 ft | 530 kts | 22° |
| 2026-05-05 08:34 | 44.14000 | 6.33041 | 29974 ft | 530 kts | 23° |
| 2026-05-05 08:34 | 44.20606 | 6.37604 | 29979 ft | 529 kts | 23° |
| 2026-05-05 08:35 | 44.27195 | 6.42159 | 29966 ft | 528 kts | 23° |
| 2026-05-05 08:35 | 44.33776 | 6.46716 | 29972 ft | 527 kts | 23° |
| 2026-05-05 08:36 | 44.39965 | 6.51005 | 29968 ft | 527 kts | 23° |
| 2026-05-05 08:36 | 44.46526 | 6.55542 | 29974 ft | 525 kts | 24° |
| 2026-05-05 08:37 | 44.53067 | 6.60116 | 29986 ft | 524 kts | 24° |
| 2026-05-05 08:37 | 44.59580 | 6.64690 | 29992 ft | 523 kts | 24° |
| 2026-05-05 08:38 | 44.66081 | 6.69247 | 29995 ft | 522 kts | 25° |
| 2026-05-05 08:38 | 44.72560 | 6.73794 | 29996 ft | 520 kts | 25° |
| 2026-05-05 08:39 | 44.79224 | 6.77569 | 30015 ft | 514 kts | 12° |
| 2026-05-05 08:39 | 44.86303 | 6.78665 | 30002 ft | 505 kts | 354° |
| 2026-05-05 08:40 | 44.93318 | 6.78161 | 29997 ft | 504 kts | 354° |
| 2026-05-05 08:40 | 45.00323 | 6.77688 | 29983 ft | 504 kts | 355° |
| 2026-05-05 08:41 | 45.07333 | 6.77244 | 29976 ft | 505 kts | 355° |
| 2026-05-05 08:41 | 45.14356 | 6.76785 | 29970 ft | 505 kts | 355° |
| 2026-05-05 08:42 | 45.21367 | 6.76320 | 29952 ft | 505 kts | 355° |
| 2026-05-05 08:42 | 45.28388 | 6.75850 | 29943 ft | 505 kts | 355° |
| 2026-05-05 08:43 | 45.35414 | 6.75372 | 29924 ft | 505 kts | 355° |
| 2026-05-05 08:43 | 45.42465 | 6.74897 | 29925 ft | 506 kts | 356° |
| 2026-05-05 08:44 | 45.49489 | 6.74427 | 29916 ft | 507 kts | 356° |
| 2026-05-05 08:44 | 45.56530 | 6.73957 | 29910 ft | 506 kts | 356° |
| 2026-05-05 08:45 | 45.63580 | 6.73471 | 29904 ft | 509 kts | 356° |
| 2026-05-05 08:45 | 45.70673 | 6.72969 | 29899 ft | 511 kts | 356° |
| 2026-05-05 08:46 | 45.77791 | 6.72703 | 29910 ft | 513 kts | 4° |
| 2026-05-05 08:46 | 45.84755 | 6.74823 | 29905 ft | 513 kts | 22° |
| 2026-05-05 08:47 | 45.91264 | 6.78980 | 29909 ft | 512 kts | 26° |
| 2026-05-05 08:47 | 45.97788 | 6.83246 | 29912 ft | 512 kts | 26° |
| 2026-05-05 08:48 | 46.04276 | 6.87487 | 29916 ft | 512 kts | 26° |
| 2026-05-05 08:48 | 46.10761 | 6.91746 | 29915 ft | 512 kts | 26° |
| 2026-05-05 08:49 | 46.17242 | 6.96036 | 29920 ft | 512 kts | 26° |
| 2026-05-05 08:49 | 46.23720 | 7.00331 | 29918 ft | 513 kts | 27° |
| 2026-05-05 08:50 | 46.30208 | 7.04620 | 29921 ft | 512 kts | 27° |
| 2026-05-05 08:50 | 46.36687 | 7.08916 | 29918 ft | 512 kts | 27° |
| 2026-05-05 08:51 | 46.43157 | 7.13213 | 29908 ft | 512 kts | 27° |
| 2026-05-05 08:51 | 46.49635 | 7.17542 | 29909 ft | 512 kts | 27° |
| 2026-05-05 08:52 | 46.56105 | 7.21891 | 29916 ft | 512 kts | 27° |
| 2026-05-05 08:52 | 46.62565 | 7.26226 | 29919 ft | 510 kts | 27° |
| 2026-05-05 08:53 | 46.69021 | 7.30572 | 29931 ft | 506 kts | 28° |
| 2026-05-05 08:53 | 46.75384 | 7.34864 | 29922 ft | 503 kts | 28° |
| 2026-05-05 08:54 | 46.81503 | 7.39675 | 29908 ft | 496 kts | 40° |
| 2026-05-05 08:54 | 46.86347 | 7.46560 | 29904 ft | 485 kts | 57° |
| 2026-05-05 08:55 | 46.89705 | 7.54964 | 29887 ft | 477 kts | 68° |
| 2026-05-05 08:55 | 46.92666 | 7.63654 | 29875 ft | 477 kts | 68° |
| 2026-05-05 08:56 | 46.95623 | 7.72361 | 29874 ft | 478 kts | 68° |
| 2026-05-05 08:56 | 46.98341 | 7.81191 | 29877 ft | 472 kts | 76° |
| 2026-05-05 08:57 | 47.00371 | 7.90405 | 29890 ft | 472 kts | 77° |
| 2026-05-05 08:57 | 47.02376 | 7.99568 | 29888 ft | 473 kts | 77° |
| 2026-05-05 08:58 | 47.04330 | 8.08542 | 29862 ft | 473 kts | 77° |
| 2026-05-05 08:58 | 47.06323 | 8.17738 | 29871 ft | 473 kts | 77° |
| 2026-05-05 08:59 | 47.08285 | 8.26848 | 29869 ft | 473 kts | 76° |
| 2026-05-05 08:59 | 47.10260 | 8.36050 | 29862 ft | 473 kts | 76° |
| 2026-05-05 09:00 | 47.12224 | 8.45261 | 29875 ft | 473 kts | 76° |
| 2026-05-05 09:00 | 47.14192 | 8.54484 | 29876 ft | 473 kts | 76° |
| 2026-05-05 09:01 | 47.16148 | 8.63707 | 29872 ft | 473 kts | 76° |
| 2026-05-05 09:01 | 47.17787 | 8.71457 | 29889 ft | 474 kts | 76° |
| 2026-05-05 09:02 | 47.19736 | 8.80723 | 29887 ft | 475 kts | 76° |
| 2026-05-05 09:02 | 47.21677 | 8.90014 | 29873 ft | 476 kts | 76° |
| 2026-05-05 09:03 | 47.23613 | 8.99352 | 29868 ft | 478 kts | 76° |
| 2026-05-05 09:03 | 47.25556 | 9.08718 | 29864 ft | 479 kts | 76° |
| 2026-05-05 09:04 | 47.27500 | 9.18113 | 29860 ft | 481 kts | 76° |
| 2026-05-05 09:04 | 47.29438 | 9.27548 | 29861 ft | 482 kts | 76° |
| 2026-05-05 09:05 | 47.31371 | 9.37008 | 29859 ft | 483 kts | 76° |
| 2026-05-05 09:05 | 47.33298 | 9.46491 | 29861 ft | 483 kts | 76° |
| 2026-05-05 09:06 | 47.35235 | 9.56058 | 29866 ft | 484 kts | 76° |
| 2026-05-05 09:06 | 47.37151 | 9.65580 | 29865 ft | 485 kts | 76° |
| 2026-05-05 09:07 | 47.39065 | 9.75115 | 29866 ft | 485 kts | 76° |
| 2026-05-05 09:07 | 47.40969 | 9.84679 | 29865 ft | 485 kts | 77° |
| 2026-05-05 09:08 | 47.42864 | 9.94248 | 29861 ft | 486 kts | 77° |
| 2026-05-05 09:08 | 47.44754 | 10.03833 | 29856 ft | 486 kts | 77° |
| 2026-05-05 09:08 | 47.45695 | 10.08633 | 29717 ft | 488 kts | 77° |
| 2026-05-05 09:09 | 47.46638 | 10.13454 | 29159 ft | 486 kts | 77° |
| 2026-05-05 09:09 | 47.47574 | 10.18229 | 29034 ft | 488 kts | 76° |
| 2026-05-05 09:09 | 47.48518 | 10.23053 | 28916 ft | 489 kts | 77° |
| 2026-05-05 09:09 | 47.49463 | 10.27894 | 28746 ft | 490 kts | 76° |
| 2026-05-05 09:10 | 47.50405 | 10.32733 | 28162 ft | 490 kts | 76° |
| 2026-05-05 09:10 | 47.51348 | 10.37584 | 27550 ft | 491 kts | 76° |
| 2026-05-05 09:10 | 47.52291 | 10.42437 | 26950 ft | 492 kts | 76° |
| 2026-05-05 09:10 | 47.53233 | 10.47305 | 26355 ft | 493 kts | 76° |
| 2026-05-05 09:11 | 47.54187 | 10.52179 | 25786 ft | 494 kts | 73° |
| 2026-05-05 09:11 | 47.55467 | 10.56903 | 25211 ft | 497 kts | 65° |
| 2026-05-05 09:11 | 47.57169 | 10.61377 | 24658 ft | 499 kts | 60° |
| 2026-05-05 09:11 | 47.58953 | 10.65787 | 24119 ft | 500 kts | 60° |
| 2026-05-05 09:12 | 47.60740 | 10.70212 | 23586 ft | 501 kts | 60° |
| 2026-05-05 09:12 | 47.62548 | 10.74702 | 22979 ft | 501 kts | 60° |
| 2026-05-05 09:12 | 47.64326 | 10.79130 | 22365 ft | 498 kts | 60° |
| 2026-05-05 09:12 | 47.66085 | 10.83528 | 21806 ft | 494 kts | 60° |
| 2026-05-05 09:13 | 47.68019 | 10.87714 | 21443 ft | 492 kts | 52° |
| 2026-05-05 09:13 | 47.70342 | 10.91428 | 21204 ft | 491 kts | 43° |
| 2026-05-05 09:13 | 47.72976 | 10.94661 | 21028 ft | 490 kts | 39° |
| 2026-05-05 09:13 | 47.75636 | 10.97800 | 20829 ft | 485 kts | 39° |
| 2026-05-05 09:14 | 47.78243 | 11.00892 | 20252 ft | 474 kts | 39° |
| 2026-05-05 09:14 | 47.80788 | 11.03925 | 19692 ft | 464 kts | 39° |
| 2026-05-05 09:14 | 47.83281 | 11.06901 | 19138 ft | 456 kts | 39° |
| 2026-05-05 09:14 | 47.85733 | 11.09831 | 18584 ft | 450 kts | 39° |
| 2026-05-05 09:15 | 47.88165 | 11.12738 | 18033 ft | 446 kts | 39° |
| 2026-05-05 09:15 | 47.90577 | 11.15614 | 17418 ft | 442 kts | 39° |
| 2026-05-05 09:15 | 47.92967 | 11.18458 | 16819 ft | 438 kts | 39° |
| 2026-05-05 09:15 | 47.95342 | 11.21279 | 16232 ft | 433 kts | 39° |
| 2026-05-05 09:16 | 47.97683 | 11.24066 | 15664 ft | 429 kts | 39° |
| 2026-05-05 09:16 | 48.00009 | 11.26842 | 15095 ft | 426 kts | 39° |
| 2026-05-05 09:16 | 48.02311 | 11.29596 | 14539 ft | 423 kts | 39° |
| 2026-05-05 09:16 | 48.04587 | 11.32354 | 13988 ft | 418 kts | 42° |
| 2026-05-05 09:17 | 48.06498 | 11.35515 | 13406 ft | 400 kts | 56° |
| 2026-05-05 09:17 | 48.07804 | 11.39104 | 12801 ft | 379 kts | 70° |
| 2026-05-05 09:17 | 48.08687 | 11.42723 | 12229 ft | 361 kts | 71° |
| 2026-05-05 09:17 | 48.09517 | 11.46154 | 11943 ft | 340 kts | 71° |
| 2026-05-05 09:18 | 48.10299 | 11.49381 | 11657 ft | 321 kts | 71° |
| 2026-05-05 09:18 | 48.11039 | 11.52433 | 11383 ft | 304 kts | 71° |
| 2026-05-05 09:18 | 48.11740 | 11.55329 | 11115 ft | 290 kts | 71° |
| 2026-05-05 09:18 | 48.12410 | 11.58104 | 10845 ft | 276 kts | 71° |
| 2026-05-05 09:19 | 48.13047 | 11.60756 | 10559 ft | 267 kts | 71° |
| 2026-05-05 09:19 | 48.13684 | 11.63409 | 10297 ft | 272 kts | 71° |
| 2026-05-05 09:19 | 48.14333 | 11.66124 | 10052 ft | 273 kts | 71° |
| 2026-05-05 09:19 | 48.14969 | 11.68797 | 9813 ft | 272 kts | 71° |
| 2026-05-05 09:20 | 48.15600 | 11.71458 | 9555 ft | 270 kts | 71° |
| 2026-05-05 09:20 | 48.16229 | 11.74100 | 9295 ft | 269 kts | 71° |
| 2026-05-05 09:20 | 48.16857 | 11.76733 | 9034 ft | 268 kts | 71° |
| 2026-05-05 09:20 | 48.17487 | 11.79358 | 8771 ft | 267 kts | 71° |
| 2026-05-05 09:21 | 48.18164 | 11.81934 | 8502 ft | 266 kts | 64° |
| 2026-05-05 09:21 | 48.19085 | 11.84339 | 8254 ft | 265 kts | 60° |
| 2026-05-05 09:21 | 48.20022 | 11.86707 | 8001 ft | 262 kts | 60° |
| 2026-05-05 09:21 | 48.20929 | 11.89004 | 7760 ft | 248 kts | 60° |
| 2026-05-05 09:22 | 48.21792 | 11.91193 | 7579 ft | 243 kts | 61° |
| 2026-05-05 09:22 | 48.22648 | 11.93367 | 7378 ft | 241 kts | 60° |
| 2026-05-05 09:22 | 48.23500 | 11.95538 | 7193 ft | 241 kts | 60° |
| 2026-05-05 09:22 | 48.24336 | 11.97673 | 6978 ft | 235 kts | 60° |
| 2026-05-05 09:23 | 48.25157 | 11.99768 | 6778 ft | 232 kts | 60° |
| 2026-05-05 09:23 | 48.25973 | 12.01856 | 6553 ft | 229 kts | 61° |
| 2026-05-05 09:23 | 48.26764 | 12.03883 | 6327 ft | 220 kts | 61° |
| 2026-05-05 09:23 | 48.27523 | 12.05828 | 6106 ft | 212 kts | 61° |
| 2026-05-05 09:24 | 48.28260 | 12.07721 | 5891 ft | 213 kts | 61° |
| 2026-05-05 09:24 | 48.29015 | 12.09666 | 5655 ft | 215 kts | 61° |
| 2026-05-05 09:24 | 48.29775 | 12.11614 | 5430 ft | 218 kts | 60° |
| 2026-05-05 09:24 | 48.30543 | 12.13581 | 5229 ft | 220 kts | 63° |
| 2026-05-05 09:25 | 48.31318 | 12.15563 | 5037 ft | 217 kts | 60° |
| 2026-05-05 09:25 | 48.32162 | 12.17399 | 4959 ft | 212 kts | 40° |
| 2026-05-05 09:25 | 48.33457 | 12.18336 | 5006 ft | 202 kts | 7° |
| 2026-05-05 09:25 | 48.34851 | 12.18211 | 5000 ft | 201 kts | 341° |
| 2026-05-05 09:26 | 48.36040 | 12.17180 | 4965 ft | 197 kts | 315° |
| 2026-05-05 09:26 | 48.36787 | 12.15486 | 4984 ft | 196 kts | 288° |
| 2026-05-05 09:26 | 48.36952 | 12.13498 | 4963 ft | 193 kts | 263° |
| 2026-05-05 09:26 | 48.36804 | 12.11485 | 4968 ft | 193 kts | 262° |
| 2026-05-05 09:27 | 48.36654 | 12.09464 | 4997 ft | 195 kts | 262° |
| 2026-05-05 09:27 | 48.36506 | 12.07464 | 4915 ft | 194 kts | 262° |
| 2026-05-05 09:27 | 48.36356 | 12.05449 | 4726 ft | 193 kts | 262° |
| 2026-05-05 09:27 | 48.36207 | 12.03442 | 4480 ft | 194 kts | 262° |
| 2026-05-05 09:28 | 48.36058 | 12.01431 | 4226 ft | 192 kts | 262° |
| 2026-05-05 09:28 | 48.35910 | 11.99446 | 3991 ft | 190 kts | 263° |
| 2026-05-05 09:28 | 48.35765 | 11.97506 | 3754 ft | 185 kts | 263° |
| 2026-05-05 09:28 | 48.35626 | 11.95637 | 3492 ft | 175 kts | 263° |
| 2026-05-05 09:29 | 48.35491 | 11.93850 | 3287 ft | 170 kts | 263° |
| 2026-05-05 09:29 | 48.35359 | 11.92093 | 3063 ft | 169 kts | 263° |
| 2026-05-05 09:29 | 48.35228 | 11.90349 | 2826 ft | 168 kts | 263° |
| 2026-05-05 09:29 | 48.35099 | 11.88647 | 2612 ft | 157 kts | 263° |
| 2026-05-05 09:30 | 48.34979 | 11.87068 | 2393 ft | 149 kts | 263° |
| 2026-05-05 09:30 | 48.34854 | 11.85540 | 2177 ft | 146 kts | 263° |
| 2026-05-05 09:30 | 48.34725 | 11.84037 | 2040 ft | 145 kts | 263° |
| 2026-05-05 09:30 | 48.34651 | 11.83026 | 1897 ft | 144 kts | 264° |
| 2026-05-05 09:31 | 48.34549 | 11.81528 | 1688 ft | 143 kts | 264° |
| 2026-05-05 09:31 | 48.34443 | 11.80043 | 1505 ft | 141 kts | 264° |
| 2026-05-05 09:31 | 48.34349 | 11.78751 | 1479 ft | 102 kts | 264° |
| 2026-05-05 09:31 | 48.34309 | 11.78057 | 1480 ft | 42 kts | 277° |
| 2026-05-05 09:32 | 48.34374 | 11.77781 | 1483 ft | 9 kts | 295° |
| 2026-05-05 09:32 | 48.34377 | 11.77769 | 1485 ft | 0 kts | 295° |
| 2026-05-05 09:32 | 48.34382 | 11.77754 | 1479 ft | 3 kts | 295° |
| 2026-05-05 09:32 | 48.34390 | 11.77729 | 1485 ft | 2 kts | 295° |
| 2026-05-05 09:33 | 48.34394 | 11.77714 | 1478 ft | 2 kts | 295° |
| 2026-05-05 09:33 | 48.34412 | 11.77656 | 1477 ft | 7 kts | 294° |
| 2026-05-05 09:33 | 48.34444 | 11.77550 | 1481 ft | 17 kts | 294° |
| 2026-05-05 09:33 | 48.34523 | 11.77442 | 1475 ft | 16 kts | 349° |
| 2026-05-05 09:34 | 48.34612 | 11.77442 | 1482 ft | 12 kts | 36° |
| 2026-05-05 09:34 | 48.34635 | 11.77545 | 1485 ft | 10 kts | 83° |
| 2026-05-05 09:34 | 48.34643 | 11.77638 | 1485 ft | 8 kts | 83° |
| 2026-05-05 09:34 | 48.34650 | 11.77716 | 1476 ft | 7 kts | 82° |
| 2026-05-05 09:35 | 48.34656 | 11.77793 | 1482 ft | 10 kts | 83° |
| 2026-05-05 09:35 | 48.34795 | 11.77880 | 1485 ft | 18 kts | 353° |
| 2026-05-05 09:35 | 48.34933 | 11.77856 | 1478 ft | 21 kts | 353° |
| 2026-05-05 09:36 | 48.35080 | 11.77830 | 1473 ft | 22 kts | 353° |
| 2026-05-05 09:36 | 48.35235 | 11.77804 | 1480 ft | 22 kts | 352° |
| 2026-05-05 09:36 | 48.35337 | 11.77785 | 1485 ft | 10 kts | 353° |
| 2026-05-05 09:36 | 48.35365 | 11.77780 | 1481 ft | 3 kts | 353° |
| 2026-05-05 09:37 | 48.35375 | 11.77762 | 1480 ft | 2 kts | 277° |
| 2026-05-05 09:37 | 48.35372 | 11.77717 | 1469 ft | 4 kts | 264° |
| 2026-05-05 09:37 | 48.35370 | 11.77687 | 1480 ft | 2 kts | 260° |
| 2026-05-05 09:37 | 48.35368 | 11.77673 | 1476 ft | 1 kts | 264° |
| 2026-05-05 09:38 | 48.35368 | 11.77672 | 1476 ft | 0 kts | 263° |
| 2026-05-05 09:43 | 48.35368 | 11.77671 | 1477 ft | 0 kts | 263° |